Terminal Aerodrome Forecast
Issued by NWS

Home | Current Version | Previous Version | Text Only | Print | Product List | Glossary On
Versions: 1 2 3 4 5 6 7 8 9 10 11 12 13 14 15 16 17 18 19
000
FTUS42 KFFC 171944 AAA
TAFRYY
TAF AMD
KRYY 171944Z 1720/1818 28010KT P6SM VCSH SCT035 BKN050
      TEMPO 1720/1722 5SM -TSRA BKN025CB
     FM180000 25004KT P6SM FEW040 SCT250
     FM181300 26005KT P6SM SCT030 BKN200=

USA.gov is the U.S. government's official web portal to all federal, state and local government web resources and services.